createdAt,value
2023-03-06T00:01:17.028Z,99637.25
2023-03-06T00:06:18.699Z,99637.13
2023-03-06T00:11:20.634Z,99627.22
2023-03-06T00:16:22.143Z,99631.88
2023-03-06T00:21:23.602Z,99618.91
2023-03-06T00:26:25.025Z,99620.59
2023-03-06T00:31:26.480Z,99618.78
2023-03-06T00:36:28.009Z,99616.16
2023-03-06T00:41:29.655Z,99615.44
2023-03-06T00:46:32.592Z,99605.00
2023-03-06T00:51:34.209Z,99598.44
2023-03-06T00:56:36.052Z,99600.28
2023-03-06T01:01:37.547Z,99585.28
2023-03-06T01:06:39.169Z,99580.22
2023-03-06T01:11:41.042Z,99571.34
2023-03-06T01:16:42.523Z,99572.75
2023-03-06T01:21:44.207Z,99571.91
2023-03-06T01:26:45.684Z,99561.69
2023-03-06T01:31:47.510Z,99554.00
2023-03-06T01:36:49.070Z,99554.00
2023-03-06T01:41:50.526Z,99542.59
2023-03-06T01:46:52.018Z,99540.09
2023-03-06T01:52:03.552Z,99537.88
2023-03-06T01:57:37.732Z,99538.13
2023-03-06T02:02:42.553Z,99539.28
2023-03-06T02:07:45.939Z,99532.13
2023-03-06T02:12:50.226Z,99527.16
2023-03-06T02:17:52.671Z,99530.03
2023-03-06T02:23:06.895Z,99523.91
2023-03-06T02:28:12.186Z,99522.22
2023-03-06T02:33:20.553Z,99511.91
2023-03-06T02:38:27.062Z,99506.22
2023-03-06T02:43:33.131Z,99505.38
2023-03-06T02:48:34.803Z,99499.59
2023-03-06T02:53:36.398Z,99498.00
2023-03-06T02:58:37.978Z,99493.91
2023-03-06T03:03:39.615Z,99489.38
2023-03-06T03:08:41.247Z,99486.13
2023-03-06T03:13:44.263Z,99477.47
2023-03-06T03:18:54.005Z,99475.59
2023-03-06T03:23:57.544Z,99466.31
2023-03-06T03:29:05.007Z,99455.78
2023-03-06T03:34:06.614Z,99452.31
2023-03-06T03:39:12.114Z,99447.91
2023-03-06T03:44:15.203Z,99448.75
2023-03-06T03:49:17.417Z,99436.31
2023-03-06T03:54:19.302Z,99438.53
2023-03-06T03:59:23.302Z,99435.88
2023-03-06T04:04:48.043Z,99421.88
2023-03-06T04:09:49.735Z,99426.63
2023-03-06T04:14:52.494Z,99413.59
2023-03-06T04:19:54.338Z,99409.13
2023-03-06T04:24:56.596Z,99402.09
2023-03-06T04:29:58.240Z,99398.72
2023-03-06T04:34:59.973Z,99401.34
2023-03-06T04:40:07.115Z,99406.50
2023-03-06T04:45:08.788Z,99400.31
2023-03-06T04:50:11.095Z,99409.78
2023-03-06T04:55:14.041Z,99396.81
2023-03-06T05:00:19.224Z,99390.81
2023-03-06T05:05:20.660Z,99379.25
2023-03-06T05:10:22.726Z,99383.97
2023-03-06T05:15:24.148Z,99373.13
2023-03-06T05:20:25.975Z,99378.72
2023-03-06T05:25:27.415Z,99369.03
2023-03-06T05:30:28.856Z,99365.91
2023-03-06T05:35:30.367Z,99369.25
2023-03-06T05:40:31.844Z,99367.78
2023-03-06T05:45:33.376Z,99356.66
2023-03-06T05:50:34.845Z,99353.66
2023-03-06T05:55:36.293Z,99361.25
2023-03-06T06:00:37.729Z,99363.16
2023-03-06T06:05:39.773Z,99361.25
2023-03-06T06:10:41.377Z,99365.66
2023-03-06T06:15:42.812Z,99365.34
2023-03-06T06:20:44.275Z,99361.84
2023-03-06T06:25:45.724Z,99361.13
2023-03-06T06:30:47.192Z,99354.81
2023-03-06T06:35:48.676Z,99355.84
2023-03-06T06:41:26.752Z,99362.56
2023-03-06T06:46:47.094Z,99364.97
2023-03-06T06:51:33.833Z,99364.50
2023-03-06T06:56:35.322Z,99362.50
2023-03-06T07:01:36.825Z,99364.47
2023-03-06T07:06:38.286Z,99360.66
2023-03-06T07:11:40.379Z,99354.81
2023-03-06T07:16:41.806Z,99357.00
2023-03-06T07:21:43.242Z,99355.25
2023-03-06T07:26:48.420Z,99343.28
2023-03-06T07:31:49.884Z,99349.59
2023-03-06T07:36:51.331Z,99349.06
2023-03-06T07:41:53.472Z,99350.41
2023-03-06T07:46:55.021Z,99358.38
2023-03-06T07:51:56.476Z,99349.75
2023-03-06T07:56:58.147Z,99346.97
2023-03-06T08:02:04.401Z,99346.28
2023-03-06T08:07:16.740Z,99347.72
2023-03-06T08:12:18.196Z,99351.56
2023-03-06T08:18:06.082Z,99353.00
2023-03-06T08:23:46.629Z,99363.81
2023-03-06T08:28:48.431Z,99356.22
2023-03-06T08:33:49.903Z,99360.91
2023-03-06T08:38:51.599Z,99361.06
2023-03-06T08:43:53.195Z,99362.22
2023-03-06T08:48:54.736Z,99355.38
2023-03-06T08:55:02.965Z,99348.53
2023-03-06T09:00:36.929Z,99360.31
2023-03-06T09:05:40.449Z,99359.47
2023-03-06T09:10:46.981Z,99354.53
2023-03-06T09:15:48.559Z,99358.34
2023-03-06T09:20:50.015Z,99353.63
2023-03-06T09:25:55.675Z,99345.22
2023-03-06T09:30:57.381Z,99356.16
2023-03-06T09:35:59.039Z,99341.84
2023-03-06T09:41:06.400Z,99341.19
2023-03-06T09:47:04.850Z,99340.28
2023-03-06T09:52:36.256Z,99344.69
2023-03-06T09:58:31.521Z,99337.31
2023-03-06T10:04:14.798Z,99339.31
2023-03-06T10:09:53.375Z,99345.84
2023-03-06T10:16:19.582Z,99344.78
2023-03-06T10:21:55.882Z,99335.91
2023-03-06T10:27:32.126Z,99339.03
2023-03-06T10:33:16.684Z,99343.06
2023-03-06T10:38:37.392Z,99341.34
2023-03-06T10:55:29.137Z,99345.50
2023-03-06T11:41:50.761Z,99301.00
2023-03-06T12:19:16.912Z,99259.31
2023-03-06T12:24:43.158Z,99254.03
2023-03-06T12:30:09.594Z,99255.31
2023-03-06T12:35:29.700Z,99256.41
2023-03-06T12:41:19.401Z,99250.56
2023-03-06T12:46:23.258Z,99251.69
2023-03-06T12:51:25.024Z,99243.97
2023-03-06T12:56:28.174Z,99247.44
2023-03-06T13:01:41.053Z,99244.69
2023-03-06T13:06:59.406Z,99238.53
2023-03-06T13:12:15.761Z,99236.91
2023-03-06T13:17:22.980Z,99239.00
2023-03-06T13:22:27.860Z,99232.31
2023-03-06T13:27:52.152Z,99228.13
2023-03-06T13:32:54.658Z,99223.25
2023-03-06T13:37:57.317Z,99211.69
2023-03-06T13:43:07.507Z,99211.69
2023-03-06T13:48:47.333Z,99213.78
2023-03-06T13:54:11.312Z,99205.94
2023-03-06T13:59:44.786Z,99201.22
2023-03-06T14:04:58.573Z,99201.34
2023-03-06T14:10:08.558Z,99209.06
2023-03-06T14:15:28.218Z,99209.47
2023-03-06T14:20:42.197Z,99208.19
2023-03-06T14:25:45.850Z,99209.47
2023-03-06T14:30:52.069Z,99206.66
2023-03-06T14:35:56.672Z,99198.00
2023-03-06T14:40:58.434Z,99201.22
2023-03-06T14:46:02.500Z,99201.50
2023-03-06T14:51:04.241Z,99198.00
2023-03-06T14:56:07.572Z,99203.88
2023-03-06T15:01:10.784Z,99194.13
2023-03-06T15:06:27.290Z,99190.91
2023-03-06T15:11:52.196Z,99195.66
2023-03-06T15:16:53.685Z,99197.16
2023-03-06T15:21:55.162Z,99215.88
2023-03-06T15:27:01.503Z,99227.38
2023-03-06T15:32:29.448Z,99228.34
2023-03-06T15:37:39.182Z,99230.56
2023-03-06T15:42:42.465Z,99237.28
2023-03-06T15:47:44.759Z,99236.69
2023-03-06T15:52:47.000Z,99242.03
2023-03-06T15:58:00.673Z,99249.34
2023-03-06T16:03:03.306Z,99246.28
2023-03-06T16:08:05.924Z,99245.47
2023-03-06T16:13:12.805Z,99241.97
2023-03-06T16:18:14.350Z,99235.91
2023-03-06T16:23:16.392Z,99237.00
2023-03-06T16:28:17.754Z,99229.84
2023-03-06T16:33:19.228Z,99223.53
2023-03-06T16:38:20.733Z,99226.91
2023-03-06T16:43:22.167Z,99223.75
2023-03-06T16:48:23.596Z,99223.06
2023-03-06T16:53:25.029Z,99220.88
2023-03-06T16:58:26.471Z,99221.28
2023-03-06T17:03:27.924Z,99213.91
2023-03-06T17:08:29.805Z,99216.81
2023-03-06T17:13:31.226Z,99225.28
2023-03-06T17:18:32.990Z,99228.03
2023-03-06T17:23:34.448Z,99238.16
2023-03-06T17:28:37.345Z,99239.50
2023-03-06T17:33:38.811Z,99251.44
2023-03-06T17:38:41.077Z,99260.72
2023-03-06T17:43:42.540Z,99264.59
2023-03-06T17:48:44.430Z,99271.28
2023-03-06T17:53:45.901Z,99274.88
2023-03-06T18:05:45.225Z,99280.84
2023-03-06T18:10:47.625Z,99274.59
2023-03-06T18:15:49.064Z,99288.06
2023-03-06T18:20:50.586Z,99291.81
2023-03-06T18:25:52.618Z,99289.03
2023-03-06T18:30:54.139Z,99286.13
2023-03-06T18:35:55.495Z,99291.81
2023-03-06T18:40:56.970Z,99293.97
2023-03-06T18:45:58.432Z,99298.63
2023-03-06T18:51:08.092Z,99297.19
2023-03-06T18:56:16.744Z,99295.91
2023-03-06T19:01:18.596Z,99291.81
2023-03-06T19:06:20.260Z,99290.97
2023-03-06T19:11:21.680Z,99288.69
2023-03-06T19:16:26.236Z,99289.03
2023-03-06T19:21:27.976Z,99287.97
2023-03-06T19:26:29.486Z,99277.66
2023-03-06T19:31:30.920Z,99283.31
2023-03-06T19:36:34.136Z,99289.19
2023-03-06T19:41:38.019Z,99281.63
2023-03-06T19:46:40.597Z,99291.69
2023-03-06T19:51:42.295Z,99282.94
2023-03-06T19:56:43.748Z,99291.22
2023-03-06T20:01:45.234Z,99284.72
2023-03-06T20:06:49.829Z,99286.34
2023-03-06T20:12:53.807Z,99277.25
2023-03-06T20:17:56.806Z,99275.50
2023-03-06T20:23:02.554Z,99268.75
2023-03-06T20:28:04.547Z,99274.16
2023-03-06T20:33:06.005Z,99273.16
2023-03-06T20:38:07.436Z,99274.50
2023-03-06T20:43:08.862Z,99262.88
2023-03-06T20:48:10.320Z,99259.03
2023-03-06T20:53:11.787Z,99266.09
2023-03-06T20:58:13.212Z,99254.00
2023-03-06T21:03:14.901Z,99245.00
2023-03-06T21:08:17.079Z,99240.59
2023-03-06T21:13:19.116Z,99233.28
2023-03-06T21:18:20.694Z,99226.44
2023-03-06T21:23:22.148Z,99228.22
2023-03-06T21:28:23.608Z,99222.94
2023-03-06T21:33:28.606Z,99212.63
2023-03-06T21:38:30.322Z,99210.22
2023-03-06T21:43:31.758Z,99218.00
2023-03-06T21:48:33.771Z,99213.94
2023-03-06T21:53:35.870Z,99220.03
2023-03-06T21:58:37.652Z,99220.69
2023-03-06T22:03:39.197Z,99213.97
2023-03-06T22:08:41.703Z,99208.72
2023-03-06T22:13:43.740Z,99209.81
2023-03-06T22:18:47.019Z,99193.16
2023-03-06T22:23:52.763Z,99188.81
2023-03-06T22:28:54.497Z,99190.13
2023-03-06T22:33:58.407Z,99183.94
2023-03-06T22:39:01.832Z,99191.47
2023-03-06T22:44:03.520Z,99188.00
2023-03-06T22:49:05.067Z,99172.94
2023-03-06T22:54:07.759Z,99183.00
2023-03-06T22:59:09.202Z,99163.47
2023-03-06T23:04:11.295Z,99178.22
2023-03-06T23:09:16.003Z,99172.09
2023-03-06T23:14:35.916Z,99166.09
2023-03-06T23:19:55.720Z,99160.63
2023-03-06T23:25:15.744Z,99154.63
2023-03-06T23:30:17.358Z,99153.53
2023-03-06T23:35:19.040Z,99148.84
2023-03-06T23:40:20.525Z,99143.97
2023-03-06T23:45:22.100Z,99133.06
2023-03-06T23:50:24.556Z,99130.53
2023-03-06T23:55:25.994Z,99130.06
